Time;durP1;ratioP1;P1;durP2;ratioP2;P2;SDS_P1;SDS_P2;PMS_P1;PMS_P2;Temp;Humidity;BMP_temperature;BMP_pressure;BME280_temperature;BME280_humidity;BME280_pressure;Samples;Min_cycle;Max_cycle;Signal;HPM_P1;HPM_P2
2022/06/11 00:01:22;;;;;;;7.97;3.50;;;;;;;;;;5012351;28;20041;-78
2022/06/11 00:03:51;;;;;;;9.02;4.22;;;;;;;;;;5013603;28;20077;-78
2022/06/11 00:06:17;;;;;;;10.35;3.90;;;;;;;;;;5013906;28;20050;-79
2022/06/11 00:08:43;;;;;;;11.05;3.72;;;;;;;;;;5013221;28;20463;-79
2022/06/11 00:11:10;;;;;;;8.80;3.58;;;;;;;;;;5014021;28;20049;-79
2022/06/11 00:13:37;;;;;;;11.20;3.70;;;;;;;;;;5013230;28;20038;-78
2022/06/11 00:16:04;;;;;;;13.15;3.90;;;;;;;;;;5013698;28;20041;-79
2022/06/11 00:18:30;;;;;;;12.23;4.50;;;;;;;;;;5011913;28;20156;-78
2022/06/11 00:20:56;;;;;;;13.60;4.07;;;;;;;;;;5013429;28;20049;-79
2022/06/11 00:23:23;;;;;;;13.68;3.95;;;;;;;;;;5013654;28;20046;-79
2022/06/11 00:25:49;;;;;;;11.45;3.67;;;;;;;;;;5013672;28;20133;-79
2022/06/11 00:28:15;;;;;;;8.02;3.50;;;;;;;;;;5012746;28;20128;-78
2022/06/11 00:30:41;;;;;;;12.18;3.88;;;;;;;;;;5012986;28;20034;-78
2022/06/11 00:33:07;;;;;;;8.88;3.83;;;;;;;;;;5011265;28;20038;-78
2022/06/11 00:35:34;;;;;;;13.70;4.38;;;;;;;;;;5013787;28;20100;-79
2022/06/11 00:38:01;;;;;;;11.82;4.03;;;;;;;;;;5013562;28;20499;-78
2022/06/11 00:40:27;;;;;;;11.70;3.78;;;;;;;;;;5012950;28;20061;-79
2022/06/11 00:42:53;;;;;;;12.57;4.10;;;;;;;;;;5013165;28;20514;-79
2022/06/11 00:45:29;;;;;;;12.05;4.35;;;;;;;;;;5030967;23;20034;-75
2022/06/11 00:48:15;;;;;;;8.90;3.60;;;;;;;;;;5058033;28;20057;-75
2022/06/11 00:50:55;;;;;;;11.27;4.05;;;;;;;;;;5057659;28;20044;-74
2022/06/11 00:53:24;;;;;;;11.73;3.72;;;;;;;;;;5058747;28;20114;-75
2022/06/11 00:55:50;;;;;;;11.45;3.63;;;;;;;;;;5058565;28;20080;-74
2022/06/11 00:58:19;;;;;;;10.90;3.95;;;;;;;;;;5058050;28;20038;-74
2022/06/11 01:00:48;;;;;;;13.05;3.60;;;;;;;;;;5058398;28;20037;-75
2022/06/11 01:03:17;;;;;;;10.20;3.60;;;;;;;;;;5057827;28;20128;-75
2022/06/11 01:05:45;;;;;;;10.40;3.63;;;;;;;;;;5058608;28;20060;-74
2022/06/11 01:08:11;;;;;;;9.98;3.70;;;;;;;;;;5058425;28;20050;-74
2022/06/11 01:10:37;;;;;;;13.15;4.10;;;;;;;;;;5057688;28;20091;-74
2022/06/11 01:13:21;;;;;;;14.05;4.00;;;;;;;;;;5057393;28;20045;-74
2022/06/11 01:15:53;;;;;;;13.63;4.22;;;;;;;;;;5057739;28;20053;-75
2022/06/11 01:18:32;;;;;;;11.15;4.30;;;;;;;;;;5057541;28;20028;-76
2022/06/11 01:20:58;;;;;;;10.40;3.80;;;;;;;;;;5057722;28;20075;-75
2022/06/11 01:23:43;;;;;;;11.80;4.18;;;;;;;;;;5057747;28;20045;-74
2022/06/11 01:26:12;;;;;;;13.07;4.25;;;;;;;;;;5058167;28;20036;-75
2022/06/11 01:28:47;;;;;;;11.48;4.20;;;;;;;;;;5056975;28;20059;-75
2022/06/11 01:31:25;;;;;;;10.80;3.88;;;;;;;;;;5056801;28;20037;-75
2022/06/11 01:33:57;;;;;;;10.70;4.00;;;;;;;;;;5058138;28;20080;-74
2022/06/11 01:36:32;;;;;;;12.55;4.32;;;;;;;;;;5057583;28;20053;-74
2022/06/11 01:39:05;;;;;;;14.10;4.33;;;;;;;;;;5057478;28;20030;-75
2022/06/11 01:41:34;;;;;;;14.45;4.28;;;;;;;;;;5057661;28;20506;-74
2022/06/11 01:44:03;;;;;;;11.07;4.03;;;;;;;;;;5057058;28;20025;-75
2022/06/11 01:46:32;;;;;;;10.52;3.72;;;;;;;;;;5055854;28;20029;-75
2022/06/11 01:49:04;;;;;;;14.88;4.63;;;;;;;;;;5057959;28;20045;-74
2022/06/11 01:51:39;;;;;;;12.05;4.20;;;;;;;;;;5057580;28;20076;-75
2022/06/11 01:54:05;;;;;;;11.97;4.07;;;;;;;;;;5057905;28;20029;-74
2022/06/11 01:56:54;;;;;;;14.82;4.68;;;;;;;;;;5057391;28;20459;-74
2022/06/11 01:59:26;;;;;;;15.35;4.03;;;;;;;;;;5037854;28;20034;-76
2022/06/11 02:01:52;;;;;;;13.48;4.13;;;;;;;;;;5057694;28;20037;-75
2022/06/11 02:04:27;;;;;;;15.85;4.47;;;;;;;;;;5061853;28;20049;-76
2022/06/11 02:07:00;;;;;;;12.10;3.87;;;;;;;;;;5061877;28;20033;-75
2022/06/11 02:09:32;;;;;;;12.52;4.40;;;;;;;;;;5061660;28;20444;-76
2022/06/11 02:12:04;;;;;;;10.77;4.00;;;;;;;;;;5060072;28;20053;-76
2022/06/11 02:14:36;;;;;;;10.60;3.90;;;;;;;;;;5041854;28;20045;-76
2022/06/11 02:17:06;;;;;;;12.50;4.05;;;;;;;;;;5041783;28;20026;-75
2022/06/11 02:19:36;;;;;;;11.55;3.90;;;;;;;;;;5041790;28;20033;-75
2022/06/11 02:22:05;;;;;;;10.85;3.92;;;;;;;;;;5041750;28;20037;-76
2022/06/11 02:24:36;;;;;;;15.43;4.68;;;;;;;;;;5041618;28;20022;-76
2022/06/11 02:27:04;;;;;;;14.70;4.00;;;;;;;;;;5057706;28;20045;-76
2022/06/11 02:29:31;;;;;;;12.00;4.07;;;;;;;;;;5041447;28;20082;-75
2022/06/11 02:32:00;;;;;;;12.40;4.10;;;;;;;;;;5042922;28;20105;-76
2022/06/11 02:34:27;;;;;;;11.32;4.30;;;;;;;;;;5060657;28;20029;-76
2022/06/11 02:36:54;;;;;;;10.32;4.07;;;;;;;;;;5055889;28;20026;-76
2022/06/11 02:39:20;;;;;;;14.25;4.00;;;;;;;;;;5041444;28;20093;-75
2022/06/11 02:41:47;;;;;;;12.18;4.00;;;;;;;;;;5041108;28;20062;-76
2022/06/11 02:44:13;;;;;;;12.30;4.15;;;;;;;;;;5059468;28;20032;-75
2022/06/11 02:46:43;;;;;;;14.48;4.25;;;;;;;;;;5057280;28;20041;-76
2022/06/11 02:49:20;;;;;;;11.13;4.05;;;;;;;;;;5042515;28;20057;-76
2022/06/11 02:51:48;;;;;;;12.00;4.20;;;;;;;;;;5041176;28;20068;-76
2022/06/11 02:54:15;;;;;;;12.25;4.30;;;;;;;;;;5041017;28;20049;-75
2022/06/11 02:56:41;;;;;;;12.68;4.50;;;;;;;;;;5041297;28;20033;-76
2022/06/11 02:59:07;;;;;;;13.27;4.30;;;;;;;;;;5054300;28;20071;-75
2022/06/11 03:01:34;;;;;;;11.80;4.25;;;;;;;;;;5045374;28;20049;-77
2022/06/11 03:04:01;;;;;;;11.88;3.70;;;;;;;;;;5040786;28;20056;-76
2022/06/11 03:06:27;;;;;;;10.75;4.30;;;;;;;;;;5040433;28;20337;-76
2022/06/11 03:08:55;;;;;;;12.32;4.45;;;;;;;;;;5040741;28;20030;-76
2022/06/11 03:11:21;;;;;;;14.30;4.45;;;;;;;;;;5040734;28;20031;-76
2022/06/11 03:13:47;;;;;;;14.43;4.38;;;;;;;;;;5048994;28;20092;-76
2022/06/11 03:16:13;;;;;;;14.15;4.28;;;;;;;;;;5057772;28;20021;-76
2022/06/11 03:18:39;;;;;;;13.63;4.75;;;;;;;;;;5060458;28;20048;-75
2022/06/11 03:21:05;;;;;;;15.50;4.68;;;;;;;;;;5059840;28;20041;-76
2022/06/11 03:23:31;;;;;;;11.60;4.00;;;;;;;;;;5054966;28;20037;-76
2022/06/11 03:25:59;;;;;;;15.20;5.05;;;;;;;;;;5040435;28;20158;-76
2022/06/11 03:28:26;;;;;;;13.10;4.38;;;;;;;;;;5040346;28;20057;-77
2022/06/11 03:30:53;;;;;;;17.80;4.43;;;;;;;;;;5040158;28;20048;-76
2022/06/11 03:33:20;;;;;;;11.55;4.50;;;;;;;;;;5042641;28;20030;-75
2022/06/11 03:35:49;;;;;;;14.13;4.40;;;;;;;;;;5040336;28;20033;-76
2022/06/11 03:38:15;;;;;;;13.82;4.97;;;;;;;;;;5040302;28;20026;-75
2022/06/11 03:40:41;;;;;;;15.25;4.80;;;;;;;;;;5040247;28;20040;-75
2022/06/11 03:43:07;;;;;;;12.10;4.60;;;;;;;;;;5040055;28;20040;-76
2022/06/11 03:45:34;;;;;;;13.85;4.80;;;;;;;;;;5039618;28;20077;-76
2022/06/11 03:48:00;;;;;;;16.77;5.05;;;;;;;;;;5053796;28;20036;-76
2022/06/11 03:50:28;;;;;;;15.13;4.72;;;;;;;;;;5059967;28;20029;-75
2022/06/11 03:52:55;;;;;;;15.48;5.20;;;;;;;;;;5059316;28;20029;-76
2022/06/11 03:55:22;;;;;;;15.70;5.07;;;;;;;;;;5039832;28;20030;-75
2022/06/11 03:57:49;;;;;;;13.18;4.35;;;;;;;;;;5039772;28;20062;-76
2022/06/11 04:01:14;;;;;;;17.30;5.25;;;;;;;;;;5047555;28;20025;-76
2022/06/11 04:03:04;;;;;;;17.55;5.13;;;;;;;;;;5053677;28;20166;-76
2022/06/11 04:05:30;;;;;;;16.48;4.63;;;;;;;;;;5059597;28;20029;-75
2022/06/11 04:07:56;;;;;;;17.88;5.15;;;;;;;;;;5059454;28;20048;-76
2022/06/11 04:10:22;;;;;;;13.73;4.82;;;;;;;;;;5058890;28;20033;-76
2022/06/11 04:12:48;;;;;;;16.50;5.03;;;;;;;;;;5057597;28;20089;-76
2022/06/11 04:15:14;;;;;;;20.30;5.55;;;;;;;;;;5039420;28;20040;-75
2022/06/11 04:17:40;;;;;;;20.05;4.90;;;;;;;;;;5038698;28;20029;-77
2022/06/11 04:20:06;;;;;;;18.77;5.00;;;;;;;;;;5038945;28;20022;-75
2022/06/11 04:22:32;;;;;;;18.67;5.68;;;;;;;;;;5052905;28;20066;-75
2022/06/11 04:24:59;;;;;;;20.17;5.57;;;;;;;;;;5058453;28;20026;-76
2022/06/11 04:27:25;;;;;;;16.98;5.10;;;;;;;;;;5058653;28;20033;-75
2022/06/11 04:29:52;;;;;;;20.38;5.25;;;;;;;;;;5039913;28;20056;-77
2022/06/11 04:32:19;;;;;;;20.85;5.97;;;;;;;;;;5039066;28;20045;-76
2022/06/11 04:34:46;;;;;;;16.48;5.25;;;;;;;;;;5022284;28;20032;-77
2022/06/11 04:37:13;;;;;;;17.00;4.85;;;;;;;;;;5039004;28;20026;-75
2022/06/11 04:39:41;;;;;;;15.65;5.20;;;;;;;;;;5039117;28;20033;-76
2022/06/11 04:42:07;;;;;;;16.63;5.03;;;;;;;;;;5039217;28;20057;-76
2022/06/11 04:44:33;;;;;;;17.55;4.75;;;;;;;;;;5038675;28;20048;-76
2022/06/11 04:46:59;;;;;;;17.77;5.68;;;;;;;;;;5037935;28;20038;-77
2022/06/11 04:49:25;;;;;;;15.00;5.43;;;;;;;;;;5038698;28;20033;-75
2022/06/11 04:51:51;;;;;;;19.10;5.63;;;;;;;;;;5026475;28;20037;-76
2022/06/11 04:54:17;;;;;;;16.92;5.15;;;;;;;;;;5038841;28;20093;-76
2022/06/11 04:56:43;;;;;;;17.23;5.47;;;;;;;;;;5038795;28;20065;-75
2022/06/11 04:59:09;;;;;;;16.52;5.72;;;;;;;;;;5038687;28;20049;-76
2022/06/11 05:01:37;;;;;;;17.58;5.78;;;;;;;;;;5038155;28;20065;-75
2022/06/11 05:04:03;;;;;;;14.27;5.57;;;;;;;;;;5056327;28;20030;-75
2022/06/11 05:06:32;;;;;;;19.00;5.93;;;;;;;;;;5058484;28;20025;-76
2022/06/11 05:08:58;;;;;;;18.30;5.25;;;;;;;;;;5057823;28;20106;-76
2022/06/11 05:11:24;;;;;;;17.65;5.50;;;;;;;;;;5056977;28;20059;-76
2022/06/11 05:13:50;;;;;;;17.98;6.22;;;;;;;;;;5041637;28;20032;-76
2022/06/11 05:16:17;;;;;;;18.77;6.50;;;;;;;;;;5047720;28;20025;-76
2022/06/11 05:18:43;;;;;;;19.35;6.07;;;;;;;;;;5047536;28;20085;-75
2022/06/11 05:21:10;;;;;;;16.17;6.32;;;;;;;;;;5038379;28;20076;-77
2022/06/11 05:23:36;;;;;;;21.73;6.43;;;;;;;;;;5038321;28;20025;-77
2022/06/11 05:26:02;;;;;;;26.77;6.95;;;;;;;;;;5038311;28;20033;-76
2022/06/11 05:28:29;;;;;;;17.48;5.95;;;;;;;;;;5037674;28;20045;-75
2022/06/11 05:30:56;;;;;;;24.52;6.82;;;;;;;;;;5041561;28;20029;-76
2022/06/11 05:33:23;;;;;;;22.90;6.50;;;;;;;;;;5054578;28;20102;-77
2022/06/11 05:35:49;;;;;;;20.10;6.32;;;;;;;;;;5058720;28;20022;-76
2022/06/11 05:38:18;;;;;;;21.08;6.50;;;;;;;;;;5064625;28;20033;-74
2022/06/11 05:40:44;;;;;;;19.45;6.25;;;;;;;;;;5049659;28;20033;-75
2022/06/11 05:43:11;;;;;;;22.25;6.45;;;;;;;;;;5058117;28;20025;-76
2022/06/11 05:45:49;;;;;;;22.00;6.85;;;;;;;;;;5052633;28;20037;-75
2022/06/11 05:48:16;;;;;;;20.85;7.00;;;;;;;;;;5064403;28;20053;-77
2022/06/11 05:50:45;;;;;;;22.52;6.88;;;;;;;;;;5064510;28;20061;-75
2022/06/11 05:53:14;;;;;;;20.50;6.85;;;;;;;;;;5064697;28;20030;-75
2022/06/11 05:55:41;;;;;;;22.23;6.43;;;;;;;;;;5048386;28;20141;-76
2022/06/11 05:58:09;;;;;;;25.90;6.65;;;;;;;;;;5042849;28;20129;-77
2022/06/11 06:00:36;;;;;;;23.13;6.90;;;;;;;;;;5044200;28;20077;-76
2022/06/11 06:03:02;;;;;;;23.40;7.00;;;;;;;;;;5043944;28;20048;-79
2022/06/11 06:05:28;;;;;;;26.20;7.30;;;;;;;;;;5044697;28;20034;-77
2022/06/11 06:07:55;;;;;;;20.30;6.47;;;;;;;;;;5044692;28;20036;-77
2022/06/11 06:10:24;;;;;;;22.63;6.03;;;;;;;;;;5054644;28;20052;-77
2022/06/11 06:12:50;;;;;;;21.50;6.43;;;;;;;;;;5064272;28;20026;-76
2022/06/11 06:15:18;;;;;;;25.92;6.65;;;;;;;;;;5064274;28;20052;-77
2022/06/11 06:17:44;;;;;;;24.92;6.90;;;;;;;;;;5064521;28;20021;-76
2022/06/11 06:20:12;;;;;;;17.88;6.28;;;;;;;;;;5064403;28;20037;-74
2022/06/11 06:22:38;;;;;;;24.05;7.07;;;;;;;;;;5063755;28;20084;-76
2022/06/11 06:25:05;;;;;;;22.67;6.20;;;;;;;;;;5054172;28;20358;-75
2022/06/11 06:27:31;;;;;;;20.90;6.55;;;;;;;;;;5054291;28;20036;-76
2022/06/11 06:29:57;;;;;;;20.27;6.05;;;;;;;;;;5063877;28;20037;-75
2022/06/11 06:32:23;;;;;;;21.88;5.95;;;;;;;;;;5064284;28;20053;-76
2022/06/11 06:34:49;;;;;;;15.90;5.38;;;;;;;;;;5064130;28;20085;-75
2022/06/11 06:37:15;;;;;;;21.00;5.88;;;;;;;;;;5059858;28;20050;-76
2022/06/11 06:39:41;;;;;;;22.30;5.60;;;;;;;;;;5050155;28;20044;-76
2022/06/11 06:42:08;;;;;;;20.80;6.32;;;;;;;;;;5064183;28;20100;-75
2022/06/11 06:44:35;;;;;;;15.98;5.30;;;;;;;;;;5063949;28;20021;-77
2022/06/11 06:47:01;;;;;;;17.23;5.60;;;;;;;;;;5063710;28;20043;-77
2022/06/11 06:49:27;;;;;;;19.33;6.10;;;;;;;;;;5060556;28;20081;-77
2022/06/11 06:51:53;;;;;;;19.50;5.50;;;;;;;;;;5053264;28;20021;-77
2022/06/11 06:54:19;;;;;;;20.75;5.90;;;;;;;;;;5048041;28;20049;-78
2022/06/11 06:56:45;;;;;;;19.45;6.25;;;;;;;;;;5046566;28;20044;-77
2022/06/11 06:59:11;;;;;;;17.35;5.43;;;;;;;;;;5050406;28;20067;-77
2022/06/11 07:01:37;;;;;;;14.73;4.95;;;;;;;;;;5054820;28;20053;-77
2022/06/11 07:04:04;;;;;;;18.02;5.32;;;;;;;;;;5040802;28;20046;-77
2022/06/11 07:06:31;;;;;;;17.25;5.22;;;;;;;;;;5040916;28;20029;-77
2022/06/11 07:08:58;;;;;;;17.80;5.03;;;;;;;;;;5040560;28;20022;-77
2022/06/11 07:11:24;;;;;;;16.30;4.80;;;;;;;;;;5047254;28;20040;-77
2022/06/11 07:13:51;;;;;;;15.95;5.25;;;;;;;;;;5060219;28;20030;-77
2022/06/11 07:16:19;;;;;;;15.82;5.00;;;;;;;;;;5059154;28;20033;-77
2022/06/11 07:18:49;;;;;;;16.67;4.80;;;;;;;;;;5060017;28;20029;-76
2022/06/11 07:21:18;;;;;;;16.25;4.95;;;;;;;;;;5057653;28;20022;-77
2022/06/11 07:23:46;;;;;;;16.90;4.90;;;;;;;;;;5040423;28;20095;-77
2022/06/11 07:26:18;;;;;;;14.57;4.45;;;;;;;;;;5046138;28;20040;-77
2022/06/11 07:28:46;;;;;;;15.48;4.85;;;;;;;;;;5051922;28;20036;-77
2022/06/11 07:31:12;;;;;;;15.27;4.75;;;;;;;;;;5058915;28;20037;-77
2022/06/11 07:33:41;;;;;;;15.30;4.90;;;;;;;;;;5057776;28;20041;-78
2022/06/11 07:36:07;;;;;;;13.57;4.70;;;;;;;;;;5051252;28;20036;-77
2022/06/11 07:38:33;;;;;;;19.92;4.35;;;;;;;;;;5058474;28;20072;-75
2022/06/11 07:40:59;;;;;;;16.15;4.45;;;;;;;;;;5056293;28;20041;-76
2022/06/11 07:43:25;;;;;;;16.02;4.63;;;;;;;;;;5040152;28;20058;-77
2022/06/11 07:45:52;;;;;;;17.52;4.90;;;;;;;;;;5058088;28;20041;-76
2022/06/11 07:48:18;;;;;;;15.02;4.38;;;;;;;;;;5049396;28;20076;-77
2022/06/11 07:50:46;;;;;;;14.70;4.75;;;;;;;;;;5059092;28;20025;-75
2022/06/11 07:53:12;;;;;;;14.18;4.35;;;;;;;;;;5057593;28;20025;-76
2022/06/11 07:55:38;;;;;;;13.20;4.22;;;;;;;;;;5058652;28;20090;-76
2022/06/11 07:58:06;;;;;;;14.13;5.57;;;;;;;;;;5059278;28;20057;-77
2022/06/11 08:00:35;;;;;;;14.27;4.20;;;;;;;;;;5057143;28;20085;-76
2022/06/11 08:03:01;;;;;;;13.55;4.40;;;;;;;;;;5059023;28;20036;-76
2022/06/11 08:05:27;;;;;;;16.02;4.97;;;;;;;;;;5052854;28;20052;-77
2022/06/11 08:07:53;;;;;;;15.43;4.82;;;;;;;;;;5054592;28;20045;-76
2022/06/11 08:10:21;;;;;;;28.75;5.95;;;;;;;;;;5041140;28;20025;-76
2022/06/11 08:12:47;;;;;;;12.88;4.15;;;;;;;;;;5056875;28;20028;-78
2022/06/11 08:15:13;;;;;;;15.07;5.03;;;;;;;;;;5041146;28;20093;-76
2022/06/11 08:17:42;;;;;;;14.27;4.18;;;;;;;;;;5058830;28;20025;-77
2022/06/11 08:20:09;;;;;;;64.60;11.00;;;;;;;;;;5046537;28;20046;-77
2022/06/11 08:22:36;;;;;;;68.93;11.52;;;;;;;;;;5051582;28;20037;-77
2022/06/11 08:25:02;;;;;;;16.17;4.70;;;;;;;;;;5040341;28;20046;-74
2022/06/11 08:27:28;;;;;;;10.70;3.55;;;;;;;;;;5054165;28;20044;-74
2022/06/11 08:29:54;;;;;;;12.77;3.95;;;;;;;;;;5058298;28;20041;-73
2022/06/11 08:32:20;;;;;;;12.52;3.80;;;;;;;;;;5057935;28;20033;-74
2022/06/11 08:34:46;;;;;;;14.45;4.18;;;;;;;;;;5037329;28;20046;-76
2022/06/11 08:37:16;;;;;;;16.17;4.35;;;;;;;;;;5037001;28;20088;-74
2022/06/11 08:39:42;;;;;;;12.68;3.90;;;;;;;;;;5038063;28;20040;-75
2022/06/11 08:42:26;;;;;;;15.60;4.13;;;;;;;;;;5037791;28;20065;-74
2022/06/11 08:44:53;;;;;;;13.10;4.72;;;;;;;;;;5037945;28;20045;-74
2022/06/11 08:47:21;;;;;;;12.63;4.03;;;;;;;;;;5039740;28;20109;-75
2022/06/11 08:49:50;;;;;;;11.60;3.97;;;;;;;;;;5038244;28;20041;-74
2022/06/11 08:52:18;;;;;;;10.43;3.63;;;;;;;;;;5037964;28;20053;-74
2022/06/11 08:54:45;;;;;;;10.73;3.33;;;;;;;;;;5037068;28;20049;-73
2022/06/11 08:57:15;;;;;;;13.43;4.10;;;;;;;;;;5037495;28;20049;-74
2022/06/11 09:00:03;;;;;;;12.25;3.70;;;;;;;;;;5037286;28;20046;-76
2022/06/11 09:03:01;;;;;;;15.90;4.00;;;;;;;;;;5037973;28;20109;-73
2022/06/11 09:05:42;;;;;;;13.60;4.13;;;;;;;;;;5017106;28;20046;-74
2022/06/11 09:08:08;;;;;;;13.68;3.55;;;;;;;;;;5016792;28;20066;-75
2022/06/11 09:10:50;;;;;;;11.27;3.90;;;;;;;;;;5000192;28;20038;-74
2022/06/11 09:13:25;;;;;;;10.57;3.63;;;;;;;;;;5016760;28;20034;-73
2022/06/11 09:15:56;;;;;;;12.93;3.80;;;;;;;;;;5028699;28;20069;-74
2022/06/11 09:18:28;;;;;;;12.20;3.83;;;;;;;;;;5019644;28;20030;-74
2022/06/11 09:21:13;;;;;;;9.57;3.72;;;;;;;;;;5020157;28;20053;-75
2022/06/11 09:24:17;;;;;;;11.18;3.80;;;;;;;;;;5036852;28;20089;-74
2022/06/11 09:26:55;;;;;;;16.35;4.22;;;;;;;;;;4981208;28;20035;-75
2022/06/11 09:29:24;;;;;;;10.98;3.42;;;;;;;;;;4996984;28;20026;-74
2022/06/11 09:32:03;;;;;;;10.60;3.35;;;;;;;;;;4997550;28;20055;-73
2022/06/11 09:34:29;;;;;;;10.98;3.70;;;;;;;;;;4996888;28;20050;-74
2022/06/11 09:37:08;;;;;;;11.65;3.47;;;;;;;;;;4997071;28;20091;-73
2022/06/11 09:39:35;;;;;;;12.40;3.75;;;;;;;;;;4996988;28;20035;-74
2022/06/11 09:42:04;;;;;;;11.10;3.50;;;;;;;;;;5014782;28;20130;-74
2022/06/11 09:44:42;;;;;;;11.55;3.15;;;;;;;;;;5016014;28;20066;-73
2022/06/11 09:47:14;;;;;;;12.40;3.72;;;;;;;;;;4999892;28;20089;-74
2022/06/11 09:49:49;;;;;;;10.27;3.38;;;;;;;;;;5015609;28;20066;-73
2022/06/11 09:52:31;;;;;;;12.35;3.55;;;;;;;;;;5016194;28;20043;-74
2022/06/11 09:55:16;;;;;;;14.15;3.50;;;;;;;;;;5016282;28;20038;-74
2022/06/11 09:57:50;;;;;;;10.73;3.40;;;;;;;;;;5029701;28;20097;-74
2022/06/11 10:00:27;;;;;;;11.88;3.53;;;;;;;;;;5036788;28;20033;-76
2022/06/11 10:03:19;;;;;;;11.52;3.60;;;;;;;;;;5036260;28;20034;-74
2022/06/11 10:06:17;;;;;;;9.27;3.40;;;;;;;;;;5037297;28;20093;-74
2022/06/11 10:08:49;;;;;;;14.98;4.30;;;;;;;;;;5016486;28;20026;-74
2022/06/11 10:11:23;;;;;;;13.45;4.55;;;;;;;;;;5016628;28;20037;-73
2022/06/11 10:14:30;;;;;;;10.10;3.53;;;;;;;;;;5017157;28;20111;-74
2022/06/11 10:16:59;;;;;;;11.48;3.80;;;;;;;;;;5007003;28;20051;-77
2022/06/11 10:19:25;;;;;;;15.77;4.65;;;;;;;;;;5031397;28;20035;-74
2022/06/11 10:21:57;;;;;;;12.85;3.70;;;;;;;;;;5016160;28;20045;-74
2022/06/11 10:24:24;;;;;;;9.05;3.20;;;;;;;;;;5019795;28;20077;-74
2022/06/11 10:26:55;;;;;;;9.65;3.60;;;;;;;;;;5020047;28;20064;-74
2022/06/11 10:29:28;;;;;;;10.07;3.17;;;;;;;;;;5003807;28;20080;-76
2022/06/11 10:32:07;;;;;;;12.18;3.75;;;;;;;;;;5020026;28;20054;-75
2022/06/11 10:34:37;;;;;;;8.60;3.08;;;;;;;;;;5026272;28;20038;-74
2022/06/11 10:37:23;;;;;;;12.88;3.60;;;;;;;;;;5039053;28;20054;-75
2022/06/11 10:39:59;;;;;;;25.65;5.25;;;;;;;;;;5035892;28;20070;-76
2022/06/11 10:42:31;;;;;;;23.02;5.20;;;;;;;;;;5039844;28;20030;-74
2022/06/11 10:44:57;;;;;;;10.77;3.28;;;;;;;;;;5056805;28;20059;-73
2022/06/11 10:47:35;;;;;;;11.80;3.67;;;;;;;;;;5060146;28;20036;-74
2022/06/11 10:50:07;;;;;;;32.92;6.13;;;;;;;;;;5054487;28;20033;-74
2022/06/11 10:52:40;;;;;;;13.30;3.50;;;;;;;;;;5047255;28;20034;-74
2022/06/11 10:55:09;;;;;;;92.63;13.77;;;;;;;;;;5040706;28;20064;-74
2022/06/11 10:57:37;;;;;;;19.65;4.20;;;;;;;;;;5039850;28;20049;-74
2022/06/11 11:00:18;;;;;;;14.05;3.63;;;;;;;;;;5039362;28;20045;-73
2022/06/11 11:02:48;;;;;;;78.65;12.40;;;;;;;;;;5039975;28;20026;-74
2022/06/11 11:05:15;;;;;;;29.73;5.13;;;;;;;;;;5039716;28;20057;-74
2022/06/11 11:07:44;;;;;;;11.15;3.08;;;;;;;;;;5039862;28;20030;-74
2022/06/11 11:10:20;;;;;;;11.43;3.65;;;;;;;;;;5039921;28;20022;-74
2022/06/11 11:12:47;;;;;;;82.68;13.57;;;;;;;;;;5039555;28;20050;-74
2022/06/11 11:15:13;;;;;;;14.57;4.28;;;;;;;;;;5048121;28;20102;-74
2022/06/11 11:17:45;;;;;;;11.70;3.05;;;;;;;;;;5040145;28;20045;-75
2022/06/11 11:20:33;;;;;;;47.53;7.90;;;;;;;;;;5039539;28;20026;-75
2022/06/11 11:23:05;;;;;;;23.42;4.97;;;;;;;;;;5039902;28;20052;-74
2022/06/11 11:25:43;;;;;;;8.57;3.20;;;;;;;;;;5039842;28;20042;-73
2022/06/11 11:28:17;;;;;;;11.48;3.70;;;;;;;;;;5039829;28;20037;-74
2022/06/11 11:30:44;;;;;;;13.48;3.10;;;;;;;;;;5039038;28;20057;-73
2022/06/11 11:33:21;;;;;;;9.07;3.10;;;;;;;;;;5039506;28;20049;-74
2022/06/11 11:35:47;;;;;;;10.93;3.75;;;;;;;;;;5038818;28;20057;-73
2022/06/11 11:38:20;;;;;;;9.45;2.88;;;;;;;;;;5038956;28;20041;-74
2022/06/11 11:40:55;;;;;;;10.15;3.47;;;;;;;;;;5040180;28;20052;-74
2022/06/11 11:43:23;;;;;;;10.55;3.28;;;;;;;;;;5040086;28;20030;-73
2022/06/11 11:45:56;;;;;;;8.82;3.22;;;;;;;;;;5058837;28;20102;-74
2022/06/11 11:48:30;;;;;;;9.55;3.40;;;;;;;;;;5051852;28;20050;-74
2022/06/11 11:51:04;;;;;;;8.35;3.17;;;;;;;;;;5038341;28;20033;-76
2022/06/11 11:53:35;;;;;;;8.63;3.10;;;;;;;;;;5042595;28;20050;-74
2022/06/11 11:56:06;;;;;;;10.07;3.20;;;;;;;;;;5039379;28;20037;-75
2022/06/11 11:58:34;;;;;;;8.65;3.10;;;;;;;;;;5039368;28;20042;-74
2022/06/11 12:01:13;;;;;;;11.27;3.78;;;;;;;;;;5039000;28;20057;-73
2022/06/11 12:03:41;;;;;;;9.05;3.58;;;;;;;;;;5037938;28;20050;-74
2022/06/11 12:06:09;;;;;;;11.20;4.18;;;;;;;;;;5038606;28;20036;-74
2022/06/11 12:08:37;;;;;;;8.60;3.63;;;;;;;;;;5056661;28;20041;-74
2022/06/11 12:11:05;;;;;;;8.63;3.60;;;;;;;;;;5058365;28;20076;-74
2022/06/11 12:13:31;;;;;;;9.32;3.53;;;;;;;;;;5058209;28;20040;-77
2022/06/11 12:16:01;;;;;;;10.18;3.60;;;;;;;;;;5038403;28;20034;-74
2022/06/11 12:18:35;;;;;;;12.90;4.15;;;;;;;;;;5038370;28;20114;-74
2022/06/11 12:21:04;;;;;;;9.07;3.38;;;;;;;;;;5038774;28;20037;-74
2022/06/11 12:24:08;;;;;;;11.52;3.60;;;;;;;;;;5038031;28;20074;-73
2022/06/11 12:26:42;;;;;;;13.75;4.30;;;;;;;;;;5001149;28;20102;-73
2022/06/11 12:29:17;;;;;;;8.30;3.55;;;;;;;;;;4984576;28;20053;-76
2022/06/11 12:31:43;;;;;;;12.20;4.22;;;;;;;;;;5017702;28;20052;-74
2022/06/11 12:34:17;;;;;;;11.35;4.00;;;;;;;;;;5017735;28;20046;-74
2022/06/11 12:37:01;;;;;;;10.32;4.20;;;;;;;;;;5023871;28;20053;-74
2022/06/11 12:39:28;;;;;;;9.57;3.83;;;;;;;;;;5037295;28;20058;-75
2022/06/11 12:41:59;;;;;;;9.55;3.67;;;;;;;;;;5003248;28;20058;-74
2022/06/11 12:44:44;;;;;;;9.27;3.85;;;;;;;;;;5036234;28;20081;-73
2022/06/11 12:47:30;;;;;;;10.40;3.38;;;;;;;;;;5036564;28;20093;-74
2022/06/11 12:50:14;;;;;;;12.23;3.97;;;;;;;;;;5037494;28;20054;-74
2022/06/11 12:52:54;;;;;;;13.02;4.18;;;;;;;;;;5036678;28;20089;-74
2022/06/11 12:55:29;;;;;;;11.75;3.33;;;;;;;;;;5036485;28;20052;-76
2022/06/11 12:57:55;;;;;;;7.70;3.70;;;;;;;;;;5019109;28;20073;-74
2022/06/11 13:00:24;;;;;;;11.52;3.60;;;;;;;;;;5046995;28;20088;-73
2022/06/11 13:03:06;;;;;;;7.10;2.90;;;;;;;;;;5058025;28;20117;-75
2022/06/11 13:05:55;;;;;;;9.98;3.40;;;;;;;;;;5057133;28;20033;-74
2022/06/11 13:08:21;;;;;;;8.85;3.20;;;;;;;;;;5057836;28;20033;-74
2022/06/11 13:10:54;;;;;;;8.95;3.33;;;;;;;;;;5051345;28;20048;-74
2022/06/11 13:13:23;;;;;;;10.27;3.50;;;;;;;;;;5043479;28;20072;-75
2022/06/11 13:15:52;;;;;;;10.95;3.25;;;;;;;;;;5056964;28;20073;-74
2022/06/11 13:18:18;;;;;;;11.60;3.67;;;;;;;;;;5057685;28;20025;-76
2022/06/11 13:21:03;;;;;;;9.05;3.15;;;;;;;;;;5056745;28;20051;-74
2022/06/11 13:23:41;;;;;;;8.45;3.08;;;;;;;;;;5057648;28;20101;-73
2022/06/11 13:26:20;;;;;;;12.07;3.83;;;;;;;;;;5046908;28;20053;-74
2022/06/11 13:29:05;;;;;;;8.63;2.80;;;;;;;;;;5036976;28;20026;-74
2022/06/11 13:31:34;;;;;;;12.20;3.17;;;;;;;;;;5057626;28;20069;-74
2022/06/11 13:34:10;;;;;;;8.40;3.10;;;;;;;;;;5057151;28;20044;-74
2022/06/11 13:36:47;;;;;;;11.05;3.20;;;;;;;;;;5057828;28;20033;-74
2022/06/11 13:39:34;;;;;;;8.48;3.25;;;;;;;;;;5057335;28;20085;-74
2022/06/11 13:42:11;;;;;;;14.10;3.78;;;;;;;;;;5056407;28;20029;-73
2022/06/11 13:45:06;;;;;;;12.60;3.70;;;;;;;;;;5039026;28;20050;-72
2022/06/11 13:47:38;;;;;;;13.27;3.47;;;;;;;;;;5018959;28;20117;-72
2022/06/11 13:50:07;;;;;;;12.10;3.42;;;;;;;;;;5036603;28;20038;-72
2022/06/11 13:55:27;;;;;;;11.40;3.58;;;;;;;;;;5043694;28;20053;-72
2022/06/11 13:58:08;;;;;;;12.80;3.63;;;;;;;;;;5056942;28;20052;-73
2022/06/11 14:00:34;;;;;;;10.10;3.22;;;;;;;;;;5060327;28;20053;-73
2022/06/11 14:03:20;;;;;;;9.98;3.45;;;;;;;;;;5060442;28;20045;-72
2022/06/11 14:05:47;;;;;;;13.23;3.72;;;;;;;;;;5060104;28;20160;-74
2022/06/11 14:08:15;;;;;;;13.00;3.88;;;;;;;;;;5060058;28;20037;-73
2022/06/11 14:10:43;;;;;;;9.55;3.50;;;;;;;;;;5058041;28;20057;-72
2022/06/11 14:13:13;;;;;;;12.43;3.92;;;;;;;;;;5043561;28;20480;-72
2022/06/11 14:15:43;;;;;;;10.48;3.30;;;;;;;;;;5059278;28;20045;-73
2022/06/11 14:18:21;;;;;;;12.10;3.97;;;;;;;;;;5059701;28;20089;-73
2022/06/11 14:20:49;;;;;;;10.40;3.50;;;;;;;;;;5059850;28;20040;-72
2022/06/11 14:23:15;;;;;;;12.75;4.07;;;;;;;;;;5054781;28;20065;-72
2022/06/11 14:25:46;;;;;;;10.30;4.05;;;;;;;;;;5046947;28;20044;-72
2022/06/11 14:28:15;;;;;;;13.55;3.95;;;;;;;;;;5060604;28;20029;-72
2022/06/11 14:30:41;;;;;;;15.20;4.13;;;;;;;;;;5045636;28;20046;-72
2022/06/11 14:33:13;;;;;;;15.20;4.25;;;;;;;;;;5040712;28;20060;-73
2022/06/11 14:35:49;;;;;;;12.30;3.72;;;;;;;;;;5040243;28;20030;-74
2022/06/11 14:38:18;;;;;;;14.60;4.60;;;;;;;;;;5040402;28;20033;-72
2022/06/11 14:40:44;;;;;;;11.50;4.00;;;;;;;;;;5040451;28;20033;-72
2022/06/11 14:43:12;;;;;;;11.38;3.83;;;;;;;;;;5040250;28;20106;-73
2022/06/11 14:45:38;;;;;;;12.45;3.88;;;;;;;;;;5039391;28;20042;-73
2022/06/11 14:48:09;;;;;;;13.77;3.92;;;;;;;;;;5039904;28;20042;-72
2022/06/11 14:50:41;;;;;;;13.48;3.88;;;;;;;;;;5040827;28;20057;-72
2022/06/11 14:53:26;;;;;;;11.77;3.85;;;;;;;;;;5040184;28;20033;-71